Terminal Aerodrome Forecast
Issued by NWS Duluth, MN

Home | Current Version | Previous Version | Text Only | Print | Product List | Glossary On
Versions: 1 2 3 4 5 6 7 8 9 10 11 12 13 14 15 16 17
000
FTUS43 KDLH 191723
TAFDLH
TAF
KDLH 191723Z 1918/2018 36016G22KT P6SM OVC013
     FM192000 03012G20KT P6SM BKN060
     FM192200 05012G18KT P6SM SCT060
     FM200100 05007KT P6SM SKC=

USA.gov is the U.S. government's official web portal to all federal, state and local government web resources and services.